createdAt,value
2023-04-12T00:00:11.475Z,5.40
2023-04-12T00:02:39.500Z,4.90
2023-04-12T00:05:06.777Z,5.00
2023-04-12T00:07:33.826Z,4.63
2023-04-12T00:10:00.563Z,4.40
2023-04-12T00:12:27.225Z,5.47
2023-04-12T00:14:53.949Z,5.17
2023-04-12T00:17:20.739Z,5.40
2023-04-12T00:19:48.674Z,5.20
2023-04-12T00:22:15.531Z,6.13
2023-04-12T00:24:42.195Z,5.07
2023-04-12T00:27:09.057Z,4.47
2023-04-12T00:29:35.846Z,5.63
2023-04-12T00:32:03.847Z,5.33
2023-04-12T00:34:31.058Z,5.20
2023-04-12T00:36:57.699Z,5.53
2023-04-12T00:39:24.350Z,5.40
2023-04-12T00:41:51.159Z,5.30
2023-04-12T00:44:18.399Z,5.00
2023-04-12T00:46:46.694Z,4.67
2023-04-12T00:49:13.574Z,5.23
2023-04-12T00:51:42.719Z,5.53
2023-04-12T00:54:09.509Z,4.87
2023-04-12T00:56:37.796Z,5.03
2023-04-12T00:59:04.424Z,6.20
2023-04-12T01:01:32.114Z,5.50
2023-04-12T01:04:02.260Z,5.47
2023-04-12T01:06:46.621Z,6.00
2023-04-12T01:09:22.406Z,6.10
2023-04-12T01:11:59.108Z,5.33
2023-04-12T01:14:35.806Z,4.90
2023-04-12T01:17:07.328Z,5.00
2023-04-12T01:19:57.974Z,5.00
2023-04-12T01:22:54.885Z,4.93
2023-04-12T01:25:46.518Z,5.63
2023-04-12T01:28:16.318Z,5.83
2023-04-12T01:30:44.433Z,5.60
2023-04-12T01:33:12.424Z,5.60
2023-04-12T01:35:40.994Z,5.40
2023-04-12T01:38:08.093Z,6.60
2023-04-12T01:40:36.143Z,6.17
2023-04-12T01:43:13.823Z,6.53
2023-04-12T01:45:40.878Z,5.77
2023-04-12T01:48:12.302Z,5.17
2023-04-12T01:50:49.276Z,5.83
2023-04-12T01:53:23.464Z,5.07
2023-04-12T01:55:51.362Z,4.73
2023-04-12T01:58:22.054Z,5.53
2023-04-12T02:00:50.025Z,5.23
2023-04-12T02:03:18.483Z,5.07
2023-04-12T02:05:45.569Z,5.17
2023-04-12T02:08:12.571Z,5.70
2023-04-12T02:10:40.451Z,6.17
2023-04-12T02:13:07.137Z,5.07
2023-04-12T02:15:34.280Z,4.80
2023-04-12T02:18:02.229Z,5.53
2023-04-12T02:20:29.721Z,5.87
2023-04-12T02:22:56.320Z,5.83
2023-04-12T02:25:22.984Z,5.57
2023-04-12T02:27:49.579Z,6.13
2023-04-12T02:30:16.348Z,4.83
2023-04-12T02:32:45.635Z,5.80
2023-04-12T02:35:18.915Z,5.77
2023-04-12T02:37:48.515Z,6.50
2023-04-12T02:40:19.548Z,6.27
2023-04-12T02:42:46.396Z,5.70
2023-04-12T02:45:13.096Z,5.30
2023-04-12T02:47:40.985Z,5.87
2023-04-12T02:50:09.210Z,5.23
2023-04-12T02:52:35.961Z,5.47
2023-04-12T02:55:03.060Z,4.97
2023-04-12T02:57:29.790Z,5.33
2023-04-12T02:59:56.493Z,5.43
2023-04-12T03:02:23.418Z,5.87
2023-04-12T03:04:51.232Z,5.07
2023-04-12T03:07:19.663Z,5.07
2023-04-12T03:09:47.782Z,5.40
2023-04-12T03:12:16.351Z,6.07
2023-04-12T03:14:43.448Z,7.40
2023-04-12T03:17:10.941Z,6.57
2023-04-12T03:19:37.613Z,6.97
2023-04-12T03:22:04.940Z,6.70
2023-04-12T03:24:34.240Z,6.67
2023-04-12T03:27:02.891Z,5.87
2023-04-12T03:29:30.365Z,8.00
2023-04-12T03:31:58.272Z,6.43
2023-04-12T03:34:27.864Z,6.97
2023-04-12T03:36:55.731Z,6.87
2023-04-12T03:39:23.045Z,7.97
2023-04-12T03:41:49.998Z,7.37
2023-04-12T03:44:16.643Z,5.87
2023-04-12T03:46:43.294Z,6.30
2023-04-12T03:49:10.086Z,6.67
2023-04-12T03:51:42.800Z,8.30
2023-04-12T03:54:10.867Z,6.67
2023-04-12T03:56:38.764Z,6.57
2023-04-12T03:59:07.758Z,6.87
2023-04-12T04:01:35.722Z,6.87
2023-04-12T04:04:03.630Z,6.87
2023-04-12T04:06:30.646Z,7.07
2023-04-12T04:08:57.955Z,5.73
2023-04-12T04:11:25.668Z,7.33
2023-04-12T04:13:52.366Z,8.30
2023-04-12T04:16:19.225Z,7.10
2023-04-12T04:18:49.016Z,7.43
2023-04-12T04:21:15.735Z,6.90
2023-04-12T04:23:45.158Z,6.10
2023-04-12T04:26:12.605Z,6.83
2023-04-12T04:28:45.106Z,6.70
2023-04-12T04:31:12.730Z,7.03
2023-04-12T04:33:40.317Z,7.67
2023-04-12T04:36:07.954Z,6.10
2023-04-12T04:38:34.806Z,7.77
2023-04-12T04:41:04.931Z,6.10
2023-04-12T04:43:34.201Z,6.70
2023-04-12T04:46:01.079Z,5.40
2023-04-12T04:48:29.993Z,5.80
2023-04-12T04:50:56.713Z,5.60
2023-04-12T04:53:23.542Z,6.40
2023-04-12T04:55:57.256Z,5.60
2023-04-12T04:58:23.854Z,4.97
2023-04-12T05:00:50.593Z,5.53
2023-04-12T05:03:18.533Z,5.97
2023-04-12T05:05:48.135Z,4.33
2023-04-12T05:08:14.752Z,4.47
2023-04-12T05:10:44.159Z,6.30
2023-04-12T05:13:11.085Z,5.13
2023-04-12T05:15:40.559Z,4.50
2023-04-12T05:18:07.286Z,4.83
2023-04-12T05:20:33.881Z,6.60
2023-04-12T05:23:02.282Z,3.90
2023-04-12T05:25:28.898Z,4.10
2023-04-12T05:27:55.704Z,5.03
2023-04-12T05:30:22.560Z,4.90
2023-04-12T05:32:49.225Z,3.97
2023-04-12T05:35:16.175Z,4.47
2023-04-12T05:37:42.815Z,4.40
2023-04-12T05:40:09.952Z,3.93
2023-04-12T05:42:39.538Z,3.63
2023-04-12T05:45:06.874Z,3.37
2023-04-12T05:47:33.512Z,2.93
2023-04-12T05:50:00.340Z,3.53
2023-04-12T05:52:26.979Z,3.07
2023-04-12T05:54:53.733Z,3.40
2023-04-12T05:57:20.351Z,2.70
2023-04-12T05:59:46.984Z,2.87
2023-04-12T06:02:13.658Z,2.20
2023-04-12T06:04:50.135Z,3.33
2023-04-12T06:07:19.451Z,2.40
2023-04-12T06:09:46.300Z,2.33
2023-04-12T06:12:12.894Z,2.40
2023-04-12T06:14:39.505Z,2.67
2023-04-12T06:17:06.121Z,3.10
2023-04-12T06:19:32.784Z,2.87
2023-04-12T06:21:59.402Z,3.07
2023-04-12T06:24:26.028Z,3.10
2023-04-12T06:26:52.635Z,2.30
2023-04-12T06:29:19.269Z,2.87
2023-04-12T06:31:45.943Z,2.40
2023-04-12T06:34:12.672Z,2.60
2023-04-12T06:36:41.620Z,2.30
2023-04-12T06:39:09.669Z,2.40
2023-04-12T06:41:37.136Z,2.43
2023-04-12T06:44:03.810Z,2.40
2023-04-12T06:46:30.880Z,1.57
2023-04-12T06:48:58.065Z,2.60
2023-04-12T06:51:25.087Z,2.43
2023-04-12T06:53:51.668Z,2.07
2023-04-12T06:56:18.936Z,2.37
2023-04-12T06:58:45.962Z,2.57
2023-04-12T07:01:13.494Z,2.30
2023-04-12T07:03:40.749Z,2.77
2023-04-12T07:06:17.697Z,1.93
2023-04-12T07:08:51.528Z,1.60
2023-04-12T07:11:20.595Z,2.50
2023-04-12T07:13:48.162Z,2.03
2023-04-12T07:16:14.764Z,2.07
2023-04-12T07:18:41.569Z,2.50
2023-04-12T07:21:08.393Z,2.43
2023-04-12T07:23:35.006Z,2.70
2023-04-12T07:26:02.723Z,2.53
2023-04-12T07:28:29.437Z,2.60
2023-04-12T07:30:56.215Z,2.10
2023-04-12T07:33:23.032Z,2.80
2023-04-12T07:35:49.748Z,2.00
2023-04-12T07:38:16.941Z,2.50
2023-04-12T07:40:43.855Z,2.17
2023-04-12T07:43:10.586Z,2.30
2023-04-12T07:45:38.128Z,2.57
2023-04-12T07:48:05.537Z,2.30
2023-04-12T07:50:32.217Z,2.10
2023-04-12T07:53:19.093Z,1.93
2023-04-12T07:55:46.455Z,2.10
2023-04-12T07:58:13.121Z,2.27
2023-04-12T08:00:39.860Z,2.00
2023-04-12T08:03:06.644Z,2.13
2023-04-12T08:05:33.469Z,1.90
2023-04-12T08:08:00.225Z,1.30
2023-04-12T08:10:26.901Z,1.10
2023-04-12T08:12:53.525Z,1.27
2023-04-12T08:15:20.251Z,1.77
2023-04-12T08:17:48.127Z,1.70
2023-04-12T08:20:18.010Z,1.83
2023-04-12T08:22:45.820Z,2.70
2023-04-12T08:25:13.230Z,2.60
2023-04-12T08:27:42.316Z,1.10
2023-04-12T08:30:10.181Z,1.33
2023-04-12T08:32:37.612Z,1.57
2023-04-12T08:35:05.409Z,1.50
2023-04-12T08:37:32.291Z,1.33
2023-04-12T08:40:07.259Z,1.27
2023-04-12T08:42:38.052Z,1.20
2023-04-12T08:45:06.328Z,1.40
2023-04-12T08:47:34.790Z,1.37
2023-04-12T08:50:02.838Z,1.57
2023-04-12T08:52:29.693Z,1.40
2023-04-12T08:54:56.686Z,1.50
2023-04-12T08:57:23.464Z,1.30
2023-04-12T08:59:52.290Z,1.20
2023-04-12T09:02:19.093Z,1.33
2023-04-12T09:04:53.615Z,0.97
2023-04-12T09:07:28.074Z,1.40
2023-04-12T09:09:55.207Z,1.23
2023-04-12T09:12:24.291Z,1.10
2023-04-12T09:15:09.986Z,1.50
2023-04-12T09:17:37.154Z,1.37
2023-04-12T09:20:07.457Z,1.30
2023-04-12T09:22:40.235Z,1.40
2023-04-12T09:25:07.571Z,1.20
2023-04-12T09:27:51.936Z,1.30
2023-04-12T09:30:20.357Z,1.10
2023-04-12T09:32:50.919Z,1.33
2023-04-12T09:35:17.830Z,1.40
2023-04-12T09:37:44.640Z,1.07
2023-04-12T09:40:11.694Z,1.30
2023-04-12T09:42:54.416Z,1.10
2023-04-12T09:45:22.076Z,1.13
2023-04-12T09:47:49.252Z,1.50
2023-04-12T09:50:29.812Z,1.60
2023-04-12T09:52:57.691Z,1.37
2023-04-12T09:55:27.330Z,1.13
2023-04-12T09:57:55.379Z,1.17
2023-04-12T10:00:24.799Z,0.80
2023-04-12T10:02:53.605Z,1.07
2023-04-12T10:05:23.548Z,0.80
2023-04-12T10:07:51.035Z,0.73
2023-04-12T10:10:19.833Z,1.03
2023-04-12T10:12:48.484Z,0.60
2023-04-12T10:15:20.998Z,0.90
2023-04-12T10:17:55.103Z,0.90
2023-04-12T10:20:25.525Z,0.90
2023-04-12T10:22:55.299Z,0.90
2023-04-12T10:25:25.420Z,0.90
2023-04-12T10:27:52.513Z,0.80
2023-04-12T10:30:30.673Z,1.00
2023-04-12T10:33:03.644Z,1.20
2023-04-12T10:35:48.894Z,0.87
2023-04-12T10:38:16.544Z,1.03
2023-04-12T10:41:07.968Z,1.10
2023-04-12T10:43:35.284Z,0.80
2023-04-12T10:46:05.324Z,1.03
2023-04-12T10:48:37.174Z,0.93
2023-04-12T10:51:25.598Z,1.20
2023-04-12T10:53:53.720Z,0.90
2023-04-12T10:56:32.848Z,0.97
2023-04-12T10:59:01.629Z,1.17
2023-04-12T11:01:29.335Z,0.90
2023-04-12T11:04:25.357Z,1.03
2023-04-12T11:07:21.512Z,1.10
2023-04-12T11:09:48.768Z,1.10
2023-04-12T11:12:16.657Z,0.97
2023-04-12T11:14:47.079Z,1.10
2023-04-12T11:17:14.536Z,0.73
2023-04-12T11:19:57.780Z,0.83
2023-04-12T11:22:27.746Z,0.90
2023-04-12T11:24:59.301Z,0.70
2023-04-12T11:27:27.548Z,1.20
2023-04-12T11:29:56.982Z,0.93
2023-04-12T11:32:27.152Z,0.90
2023-04-12T11:34:56.212Z,1.00
2023-04-12T11:37:23.723Z,0.90
2023-04-12T11:39:53.270Z,0.93
2023-04-12T11:42:22.723Z,1.00
2023-04-12T11:44:56.314Z,0.80
2023-04-12T11:47:25.858Z,1.00
2023-04-12T11:49:58.153Z,1.00
2023-04-12T11:52:33.400Z,1.77
2023-04-12T11:55:06.850Z,0.80
2023-04-12T11:57:34.686Z,0.70
2023-04-12T12:00:02.445Z,0.90
2023-04-12T12:02:32.973Z,1.00
2023-04-12T12:05:04.196Z,0.90
2023-04-12T12:07:31.690Z,1.17
2023-04-12T12:09:58.840Z,0.87
2023-04-12T12:12:25.720Z,0.57
2023-04-12T12:14:52.356Z,0.80
2023-04-12T12:17:19.539Z,1.00
2023-04-12T12:19:46.639Z,0.70
2023-04-12T12:22:17.506Z,0.90
2023-04-12T12:25:02.436Z,0.70
2023-04-12T12:27:38.183Z,0.90
2023-04-12T12:30:07.766Z,1.43
2023-04-12T12:32:35.781Z,1.00
2023-04-12T12:35:03.519Z,1.10
2023-04-12T12:37:31.389Z,1.73
2023-04-12T12:40:15.748Z,0.70
2023-04-12T12:42:56.316Z,0.70
2023-04-12T12:45:25.028Z,0.93
2023-04-12T12:47:51.771Z,0.80
2023-04-12T12:50:20.610Z,0.70
2023-04-12T12:52:49.118Z,1.10
2023-04-12T12:55:16.634Z,1.13
2023-04-12T12:57:51.980Z,1.27
2023-04-12T13:00:29.463Z,0.80
2023-04-12T13:02:56.638Z,0.90
2023-04-12T13:05:23.830Z,1.33
2023-04-12T13:07:50.553Z,1.80
2023-04-12T13:10:17.398Z,1.00
2023-04-12T13:12:44.074Z,1.10
2023-04-12T13:15:22.441Z,0.90
2023-04-12T13:17:53.760Z,1.10
2023-04-12T13:20:21.151Z,0.80
2023-04-12T13:22:48.040Z,0.80
2023-04-12T13:25:14.840Z,1.00
2023-04-12T13:27:41.672Z,0.87
2023-04-12T13:30:08.794Z,0.97
2023-04-12T13:32:35.974Z,1.40
2023-04-12T13:35:03.539Z,1.00
2023-04-12T13:37:30.165Z,1.00
2023-04-12T13:39:57.150Z,1.10
2023-04-12T13:42:24.420Z,0.67
2023-04-12T13:44:51.231Z,1.00
2023-04-12T13:47:18.035Z,0.73
2023-04-12T13:49:44.940Z,1.40
2023-04-12T13:52:12.299Z,1.57
2023-04-12T13:54:39.127Z,1.20
2023-04-12T13:57:06.024Z,1.00
2023-04-12T13:59:33.088Z,1.20
2023-04-12T14:02:01.036Z,0.90
2023-04-12T14:04:29.072Z,1.53
2023-04-12T14:06:57.089Z,1.00
2023-04-12T14:09:24.249Z,1.10
2023-04-12T14:11:55.224Z,0.90
2023-04-12T14:14:22.898Z,1.00
2023-04-12T14:16:51.847Z,1.00
2023-04-12T14:19:18.538Z,1.20
2023-04-12T14:21:45.585Z,1.20
2023-04-12T14:24:12.583Z,1.47
2023-04-12T14:26:39.991Z,1.50
2023-04-12T14:29:07.309Z,0.70
2023-04-12T14:31:37.801Z,1.10
2023-04-12T14:34:05.491Z,0.87
2023-04-12T14:36:33.523Z,1.60
2023-04-12T14:39:01.654Z,0.80
2023-04-12T14:41:28.583Z,1.00
2023-04-12T14:43:55.261Z,1.03
2023-04-12T14:46:22.296Z,0.80
2023-04-12T14:48:49.202Z,0.97
2023-04-12T14:51:16.061Z,1.00
2023-04-12T14:53:43.295Z,0.80
2023-04-12T14:56:25.658Z,1.07
2023-04-12T14:58:54.690Z,0.93
2023-04-12T15:01:23.559Z,1.30
2023-04-12T15:03:52.185Z,1.00
2023-04-12T15:06:20.578Z,0.87
2023-04-12T15:08:49.552Z,1.20
2023-04-12T15:11:19.265Z,0.97
2023-04-12T15:13:45.893Z,1.07
2023-04-12T15:16:12.687Z,1.00
2023-04-12T15:18:41.681Z,0.80
2023-04-12T15:21:10.522Z,0.77
2023-04-12T15:23:38.410Z,1.10
2023-04-12T15:26:09.338Z,1.10
2023-04-12T15:28:36.539Z,0.93
2023-04-12T15:31:04.525Z,0.80
2023-04-12T15:33:34.721Z,1.20
2023-04-12T15:36:02.381Z,1.27
2023-04-12T15:38:29.958Z,1.20
2023-04-12T15:40:59.124Z,1.70
2023-04-12T15:43:26.863Z,0.93
2023-04-12T15:45:54.894Z,1.47
2023-04-12T15:48:23.217Z,1.20
2023-04-12T15:50:50.974Z,0.80
2023-04-12T15:53:21.604Z,1.00
2023-04-12T15:55:48.835Z,0.73
2023-04-12T15:58:15.527Z,1.33
2023-04-12T16:00:42.460Z,1.07
2023-04-12T16:03:09.604Z,1.67
2023-04-12T16:05:36.591Z,0.70
2023-04-12T16:08:03.631Z,0.90
2023-04-12T16:10:30.524Z,1.00
2023-04-12T16:12:58.341Z,1.17
2023-04-12T16:15:25.191Z,1.10
2023-04-12T16:17:54.412Z,0.90
2023-04-12T16:20:21.992Z,0.80
2023-04-12T16:22:54.248Z,2.80
2023-04-12T16:25:22.492Z,1.67
2023-04-12T16:27:49.143Z,0.90
2023-04-12T16:30:16.098Z,4.23
2023-04-12T16:32:46.742Z,10.77
2023-04-12T16:35:15.016Z,2.07
2023-04-12T16:37:42.753Z,1.63
2023-04-12T16:40:13.077Z,1.10
2023-04-12T16:42:44.255Z,3.57
2023-04-12T16:45:13.979Z,1.90
2023-04-12T16:47:40.984Z,1.27
2023-04-12T16:50:12.831Z,2.00
2023-04-12T16:52:41.072Z,0.83
2023-04-12T16:55:11.032Z,1.33
2023-04-12T16:57:42.046Z,1.10
2023-04-12T17:00:19.228Z,1.40
2023-04-12T17:02:47.706Z,2.60
2023-04-12T17:05:17.657Z,1.60
2023-04-12T17:07:49.910Z,1.50
2023-04-12T17:10:18.178Z,4.20
2023-04-12T17:12:48.065Z,2.50
2023-04-12T17:15:17.414Z,1.30
2023-04-12T17:17:50.061Z,2.10
2023-04-12T17:20:18.554Z,2.80
2023-04-12T17:22:46.260Z,1.80
2023-04-12T17:25:13.380Z,1.60
2023-04-12T17:27:41.174Z,1.23
2023-04-12T17:30:11.171Z,1.43
2023-04-12T17:32:39.225Z,1.20
2023-04-12T17:35:06.912Z,1.63
2023-04-12T17:37:34.889Z,1.50
2023-04-12T17:40:02.187Z,2.53
2023-04-12T17:42:28.768Z,17.17
2023-04-12T17:44:55.540Z,20.73
2023-04-12T17:47:23.091Z,7.37
2023-04-12T17:49:50.065Z,53.37
2023-04-12T17:52:17.368Z,15.53
2023-04-12T17:54:44.051Z,9.90
2023-04-12T17:57:10.835Z,2.07
2023-04-12T17:59:37.563Z,2.27
2023-04-12T18:02:04.381Z,2.67
2023-04-12T18:04:31.421Z,1.97
2023-04-12T18:06:58.795Z,2.47
2023-04-12T18:09:29.301Z,2.97
2023-04-12T18:11:56.570Z,1.53
2023-04-12T18:14:23.744Z,1.40
2023-04-12T18:16:50.352Z,1.73
2023-04-12T18:19:19.105Z,1.93
2023-04-12T18:21:49.469Z,1.40
2023-04-12T18:24:16.997Z,1.40
2023-04-12T18:26:44.548Z,1.30
2023-04-12T18:29:16.796Z,1.43
2023-04-12T18:31:43.611Z,2.20
2023-04-12T18:34:10.309Z,1.73
2023-04-12T18:36:37.295Z,2.17
2023-04-12T18:39:04.682Z,3.77
2023-04-12T18:41:31.712Z,1.97
2023-04-12T18:43:58.745Z,4.90
2023-04-12T18:46:29.591Z,2.17
2023-04-12T18:48:56.922Z,1.77
2023-04-12T18:51:23.953Z,4.60
2023-04-12T18:53:53.551Z,3.17
2023-04-12T18:56:24.561Z,3.23
2023-04-12T18:58:55.732Z,2.70
2023-04-12T19:01:23.324Z,2.00
2023-04-12T19:03:50.473Z,4.40
2023-04-12T19:06:18.481Z,9.23
2023-04-12T19:08:45.390Z,6.93
2023-04-12T19:11:12.500Z,3.30
2023-04-12T19:13:39.895Z,1.37
2023-04-12T19:16:09.525Z,1.47
2023-04-12T19:18:36.189Z,1.60
2023-04-12T19:21:03.540Z,1.80
2023-04-12T19:23:31.281Z,2.70
2023-04-12T19:26:00.159Z,2.70
2023-04-12T19:28:27.525Z,2.13
2023-04-12T19:30:54.848Z,5.10
2023-04-12T19:33:21.474Z,2.93
2023-04-12T19:35:48.153Z,3.00
2023-04-12T19:38:15.833Z,2.00
2023-04-12T19:40:43.141Z,1.30
2023-04-12T19:43:09.924Z,1.57
2023-04-12T19:45:36.608Z,1.67
2023-04-12T19:48:03.516Z,2.00
2023-04-12T19:50:31.232Z,1.33
2023-04-12T19:52:58.036Z,3.73
2023-04-12T19:55:26.027Z,1.80
2023-04-12T19:57:53.221Z,2.07
2023-04-12T20:00:20.662Z,1.50
2023-04-12T20:02:49.240Z,1.60
2023-04-12T20:05:16.766Z,1.97
2023-04-12T20:07:44.243Z,1.40
2023-04-12T20:10:11.974Z,1.80
2023-04-12T20:12:39.214Z,1.40
2023-04-12T20:15:08.787Z,1.33
2023-04-12T20:17:36.131Z,1.57
2023-04-12T20:20:07.726Z,1.30
2023-04-12T20:22:35.526Z,1.40
2023-04-12T20:25:02.272Z,1.60
2023-04-12T20:27:30.878Z,0.90
2023-04-12T20:29:58.995Z,1.27
2023-04-12T20:32:25.869Z,1.50
2023-04-12T20:34:52.482Z,2.20
2023-04-12T20:37:19.085Z,1.27
2023-04-12T20:39:45.706Z,1.27
2023-04-12T20:42:13.029Z,1.37
2023-04-12T20:44:39.626Z,2.40
2023-04-12T20:47:07.348Z,2.30
2023-04-12T20:49:33.981Z,7.77
2023-04-12T20:52:00.752Z,3.23
2023-04-12T20:54:31.556Z,5.27
2023-04-12T20:56:59.627Z,6.53
2023-04-12T20:59:29.620Z,2.10
2023-04-12T21:01:57.277Z,2.40
2023-04-12T21:04:26.224Z,3.87
2023-04-12T21:06:55.471Z,3.73
2023-04-12T21:09:24.962Z,2.17
2023-04-12T21:11:57.982Z,2.17
2023-04-12T21:14:24.759Z,1.90
2023-04-12T21:16:52.618Z,1.43
2023-04-12T21:19:19.513Z,1.47
2023-04-12T21:21:46.662Z,1.60
2023-04-12T21:24:13.408Z,1.20
2023-04-12T21:26:40.869Z,1.73
2023-04-12T21:29:07.438Z,1.20
2023-04-12T21:31:34.252Z,1.93
2023-04-12T21:34:00.883Z,1.53
2023-04-12T21:36:28.796Z,1.67
2023-04-12T21:38:56.891Z,1.43
2023-04-12T21:41:25.121Z,1.30
2023-04-12T21:43:52.469Z,1.93
2023-04-12T21:46:19.351Z,1.10
2023-04-12T21:48:46.338Z,1.43
2023-04-12T21:51:13.105Z,1.20
2023-04-12T21:53:39.754Z,1.07
2023-04-12T21:56:06.867Z,1.60
2023-04-12T21:58:34.196Z,1.50
2023-04-12T22:01:01.228Z,1.77
2023-04-12T22:03:28.539Z,1.77
2023-04-12T22:06:04.444Z,1.37
2023-04-12T22:08:33.144Z,1.60
2023-04-12T22:11:00.374Z,1.33
2023-04-12T22:13:27.514Z,1.27
2023-04-12T22:15:54.225Z,1.40
2023-04-12T22:18:20.892Z,1.90
2023-04-12T22:20:48.104Z,1.83
2023-04-12T22:23:18.149Z,1.50
2023-04-12T22:25:45.672Z,1.23
2023-04-12T22:28:12.594Z,1.47
2023-04-12T22:30:39.708Z,1.40
2023-04-12T22:33:08.439Z,1.10
2023-04-12T22:35:36.473Z,1.40
2023-04-12T22:38:04.224Z,1.00
2023-04-12T22:40:31.001Z,1.50
2023-04-12T22:42:58.257Z,1.47
2023-04-12T22:45:25.212Z,1.70
2023-04-12T22:47:52.923Z,1.67
2023-04-12T22:50:20.081Z,1.53
2023-04-12T22:52:49.889Z,1.43
2023-04-12T22:55:18.274Z,1.70
2023-04-12T22:57:45.299Z,1.57
2023-04-12T23:00:16.441Z,1.20
2023-04-12T23:02:44.117Z,1.40
2023-04-12T23:05:12.160Z,1.73
2023-04-12T23:07:38.893Z,1.67
2023-04-12T23:10:06.484Z,1.30
2023-04-12T23:12:33.079Z,1.40
2023-04-12T23:14:59.706Z,2.03
2023-04-12T23:17:26.774Z,1.77
2023-04-12T23:19:53.643Z,1.73
2023-04-12T23:22:48.576Z,1.30
2023-04-12T23:25:21.763Z,1.63
2023-04-12T23:27:49.194Z,1.50
2023-04-12T23:30:20.240Z,0.83
2023-04-12T23:32:47.179Z,1.23
2023-04-12T23:35:14.547Z,1.10
2023-04-12T23:37:41.753Z,1.10
2023-04-12T23:40:14.880Z,1.10
2023-04-12T23:42:43.513Z,1.20
2023-04-12T23:45:10.863Z,1.27
2023-04-12T23:47:38.104Z,1.20
2023-04-12T23:50:05.936Z,1.37
2023-04-12T23:52:32.638Z,1.37
2023-04-12T23:54:59.684Z,1.53
2023-04-12T23:57:26.363Z,1.23
2023-04-12T23:59:53.087Z,1.40
